createdAt,value
2023-08-14T00:00:02.465Z,5.32
2023-08-14T00:03:00.482Z,5.00
2023-08-14T00:05:58.682Z,5.18
2023-08-14T00:08:56.788Z,5.30
2023-08-14T00:11:54.823Z,5.57
2023-08-14T00:14:52.992Z,5.18
2023-08-14T00:17:53.069Z,5.55
2023-08-14T00:20:51.154Z,5.28
2023-08-14T00:23:49.230Z,4.70
2023-08-14T00:26:47.247Z,4.90
2023-08-14T00:29:45.299Z,4.65
2023-08-14T00:32:43.213Z,4.68
2023-08-14T00:35:41.247Z,5.15
2023-08-14T00:38:39.112Z,4.63
2023-08-14T00:41:38.801Z,5.55
2023-08-14T00:44:36.735Z,5.45
2023-08-14T00:47:37.142Z,5.15
2023-08-14T00:50:36.128Z,5.40
2023-08-14T00:53:34.415Z,5.45
2023-08-14T00:56:33.151Z,5.43
2023-08-14T00:59:31.505Z,4.70
2023-08-14T01:02:29.522Z,4.72
2023-08-14T01:05:27.636Z,5.10
2023-08-14T01:08:26.041Z,5.28
2023-08-14T01:11:55.880Z,4.97
2023-08-14T01:15:03.298Z,6.10
2023-08-14T01:18:03.742Z,5.50
2023-08-14T01:21:37.100Z,6.13
2023-08-14T01:24:58.044Z,5.70
2023-08-14T01:27:57.098Z,5.95
2023-08-14T01:30:56.452Z,6.38
2023-08-14T01:33:55.148Z,6.90
2023-08-14T01:37:14.228Z,7.32
2023-08-14T01:40:32.335Z,7.70
2023-08-14T01:43:39.856Z,9.60
2023-08-14T01:46:39.429Z,12.65
2023-08-14T01:49:39.588Z,13.68
2023-08-14T01:52:37.504Z,15.52
2023-08-14T01:55:35.608Z,14.25
2023-08-14T01:58:33.549Z,13.98
2023-08-14T02:01:31.630Z,14.02
2023-08-14T02:04:29.564Z,13.77
2023-08-14T02:07:27.557Z,13.55
2023-08-14T02:10:25.525Z,13.18
2023-08-14T02:13:23.582Z,12.40
2023-08-14T02:16:21.510Z,12.30
2023-08-14T02:19:19.813Z,12.60
2023-08-14T02:22:18.045Z,14.10
2023-08-14T02:25:16.266Z,11.80
2023-08-14T02:28:14.564Z,12.02
2023-08-14T02:31:12.569Z,11.02
2023-08-14T02:34:10.450Z,10.82
2023-08-14T02:37:08.278Z,10.07
2023-08-14T02:40:06.620Z,10.50
2023-08-14T02:43:05.196Z,11.65
2023-08-14T02:46:03.049Z,21.85
2023-08-14T02:49:01.039Z,16.90
2023-08-14T02:51:59.168Z,16.75
2023-08-14T02:54:57.105Z,21.20
2023-08-14T02:57:54.920Z,12.95
2023-08-14T03:00:52.844Z,11.27
2023-08-14T03:03:50.670Z,9.43
2023-08-14T03:06:48.534Z,10.40
2023-08-14T03:09:46.308Z,10.38
2023-08-14T03:12:44.196Z,10.63
2023-08-14T03:15:41.957Z,9.07
2023-08-14T03:18:40.602Z,7.07
2023-08-14T03:21:39.233Z,7.07
2023-08-14T03:24:37.066Z,6.47
2023-08-14T03:27:34.944Z,6.30
2023-08-14T03:30:32.815Z,6.63
2023-08-14T03:33:30.539Z,6.50
2023-08-14T03:36:28.438Z,5.70
2023-08-14T03:39:26.488Z,6.28
2023-08-14T03:42:24.410Z,6.57
2023-08-14T03:45:22.163Z,6.72
2023-08-14T03:48:20.029Z,6.63
2023-08-14T03:51:17.762Z,6.93
2023-08-14T03:54:15.634Z,7.25
2023-08-14T03:57:13.555Z,7.22
2023-08-14T04:00:12.418Z,8.35
2023-08-14T04:03:10.270Z,6.68
2023-08-14T04:06:08.183Z,7.55
2023-08-14T04:09:06.939Z,8.35
2023-08-14T04:12:05.024Z,8.00
2023-08-14T04:15:18.849Z,7.65
2023-08-14T04:18:16.803Z,7.88
2023-08-14T04:21:14.580Z,7.15
2023-08-14T04:24:12.631Z,9.25
2023-08-14T04:27:10.532Z,8.80
2023-08-14T04:30:09.940Z,8.77
2023-08-14T04:33:08.478Z,8.25
2023-08-14T04:36:06.938Z,9.10
2023-08-14T04:39:06.152Z,8.93
2023-08-14T04:42:04.097Z,9.20
2023-08-14T04:45:02.524Z,9.02
2023-08-14T04:48:00.427Z,8.10
2023-08-14T04:50:58.195Z,7.60
2023-08-14T04:53:57.082Z,6.97
2023-08-14T04:56:54.841Z,6.55
2023-08-14T04:59:52.732Z,8.52
2023-08-14T05:02:50.520Z,5.97
2023-08-14T05:05:53.122Z,6.07
2023-08-14T05:08:50.854Z,5.90
2023-08-14T05:11:48.804Z,5.80
2023-08-14T05:14:48.070Z,7.50
2023-08-14T05:17:46.261Z,4.70
2023-08-14T05:20:45.470Z,6.38
2023-08-14T05:23:43.864Z,5.72
2023-08-14T05:26:41.654Z,6.05
2023-08-14T05:29:39.557Z,6.15
2023-08-14T05:32:37.413Z,5.45
2023-08-14T05:35:35.477Z,5.20
2023-08-14T05:38:33.300Z,5.20
2023-08-14T05:41:31.177Z,5.30
2023-08-14T05:44:29.138Z,5.07
2023-08-14T05:47:27.085Z,4.40
2023-08-14T05:50:24.929Z,4.20
2023-08-14T05:53:22.913Z,4.63
2023-08-14T05:56:20.702Z,4.25
2023-08-14T05:59:18.736Z,4.85
2023-08-14T06:02:16.835Z,8.80
2023-08-14T06:05:15.351Z,8.40
2023-08-14T06:08:13.136Z,9.05
2023-08-14T06:11:11.014Z,9.35
2023-08-14T06:14:08.808Z,7.50
2023-08-14T06:17:06.853Z,9.32
2023-08-14T06:20:06.244Z,12.82
2023-08-14T06:23:04.188Z,12.43
2023-08-14T06:26:02.117Z,9.98
2023-08-14T06:29:00.013Z,12.18
2023-08-14T06:31:59.262Z,11.02
2023-08-14T06:34:57.142Z,10.57
2023-08-14T06:37:54.901Z,10.48
2023-08-14T06:40:52.803Z,11.02
2023-08-14T06:43:50.661Z,11.73
2023-08-14T06:46:48.741Z,6.93
2023-08-14T06:49:46.598Z,7.15
2023-08-14T06:52:44.556Z,7.07
2023-08-14T06:55:48.011Z,6.53
2023-08-14T06:58:46.097Z,11.20
2023-08-14T07:01:43.931Z,8.75
2023-08-14T07:04:41.971Z,8.20
2023-08-14T07:07:40.174Z,7.40
2023-08-14T07:10:38.081Z,8.70
2023-08-14T07:13:35.913Z,7.88
2023-08-14T07:16:34.303Z,9.05
2023-08-14T07:19:33.551Z,9.55
2023-08-14T07:22:31.483Z,10.70
2023-08-14T07:25:29.374Z,10.68
2023-08-14T07:28:28.001Z,8.50
2023-08-14T07:31:25.884Z,7.40
2023-08-14T07:34:23.736Z,8.40
2023-08-14T07:37:21.495Z,8.60
2023-08-14T07:40:20.104Z,9.18
2023-08-14T07:43:17.906Z,10.23
2023-08-14T07:46:15.834Z,9.25
2023-08-14T07:49:13.755Z,8.40
2023-08-14T07:52:12.054Z,10.30
2023-08-14T07:55:10.088Z,11.10
2023-08-14T07:58:07.961Z,9.57
2023-08-14T08:01:05.799Z,11.77
2023-08-14T08:04:03.893Z,9.60
2023-08-14T08:07:01.965Z,9.90
2023-08-14T08:09:59.830Z,11.35
2023-08-14T08:12:57.702Z,7.32
2023-08-14T08:15:55.678Z,11.20
2023-08-14T08:18:53.528Z,9.77
2023-08-14T08:21:51.698Z,9.50
2023-08-14T08:24:49.467Z,7.38
2023-08-14T08:27:47.452Z,11.45
2023-08-14T08:30:45.231Z,10.70
2023-08-14T08:33:43.204Z,14.05
2023-08-14T08:36:41.012Z,8.43
2023-08-14T08:39:38.919Z,11.80
2023-08-14T08:42:37.942Z,7.05
2023-08-14T08:45:38.371Z,12.10
2023-08-14T08:48:41.080Z,11.75
2023-08-14T08:51:41.267Z,9.73
2023-08-14T08:54:40.299Z,12.85
2023-08-14T08:57:40.477Z,12.07
2023-08-14T09:00:38.300Z,9.32
2023-08-14T09:03:36.279Z,9.30
2023-08-14T09:06:34.396Z,12.27
2023-08-14T09:09:32.346Z,10.38
2023-08-14T09:12:30.949Z,12.25
2023-08-14T09:18:32.300Z,8.45
2023-08-14T09:21:30.924Z,12.05
2023-08-14T09:24:28.870Z,12.93
2023-08-14T09:27:28.105Z,11.48
2023-08-14T09:30:27.897Z,12.02
2023-08-14T09:33:25.950Z,11.77
2023-08-14T09:36:24.024Z,11.95
2023-08-14T09:39:21.885Z,12.35
2023-08-14T09:42:20.659Z,11.25
2023-08-14T09:45:20.738Z,10.75
2023-08-14T09:48:18.798Z,10.65
2023-08-14T09:51:19.192Z,12.90
2023-08-14T09:54:17.041Z,9.80
2023-08-14T09:57:15.940Z,11.07
2023-08-14T10:00:14.366Z,12.52
2023-08-14T10:03:13.081Z,11.13
2023-08-14T10:06:13.600Z,11.43
2023-08-14T10:09:12.211Z,10.13
2023-08-14T10:12:14.144Z,11.55
2023-08-14T10:15:14.920Z,13.87
2023-08-14T10:18:17.104Z,10.85
2023-08-14T10:21:17.179Z,10.93
2023-08-14T10:24:15.232Z,10.30
2023-08-14T10:27:13.891Z,10.43
2023-08-14T10:30:12.785Z,10.55
2023-08-14T10:33:11.301Z,10.23
2023-08-14T10:36:09.360Z,10.82
2023-08-14T10:39:11.173Z,10.90
2023-08-14T10:42:15.288Z,9.95
2023-08-14T10:45:16.220Z,11.27
2023-08-14T10:48:14.556Z,10.10
2023-08-14T10:51:18.228Z,8.95
2023-08-14T10:54:17.375Z,8.70
2023-08-14T10:57:15.825Z,7.45
2023-08-14T11:00:25.617Z,7.40
2023-08-14T11:03:23.628Z,7.07
2023-08-14T11:06:30.796Z,7.20
2023-08-14T11:09:33.363Z,7.35
2023-08-14T11:12:32.022Z,7.05
2023-08-14T11:15:33.660Z,7.28
2023-08-14T11:18:31.485Z,7.50
2023-08-14T11:21:32.408Z,8.15
2023-08-14T11:24:31.227Z,7.10
2023-08-14T11:27:29.133Z,6.65
2023-08-14T11:30:28.348Z,7.57
2023-08-14T11:33:26.230Z,7.07
2023-08-14T11:36:25.387Z,7.88
2023-08-14T11:39:23.325Z,8.73
2023-08-14T11:42:21.750Z,7.90
2023-08-14T11:45:21.216Z,7.50
2023-08-14T11:48:20.055Z,9.18
2023-08-14T11:51:17.993Z,9.35
2023-08-14T11:54:16.922Z,9.50
2023-08-14T11:57:15.370Z,9.60
2023-08-14T12:00:21.072Z,10.27
2023-08-14T12:03:25.555Z,9.90
2023-08-14T12:06:24.435Z,10.45
2023-08-14T12:09:26.513Z,9.25
2023-08-14T12:12:26.003Z,10.50
2023-08-14T12:15:24.925Z,9.23
2023-08-14T12:18:24.038Z,8.57
2023-08-14T12:21:28.919Z,8.88
2023-08-14T12:24:26.784Z,8.88
2023-08-14T12:27:28.444Z,8.18
2023-08-14T12:30:26.354Z,8.18
2023-08-14T12:33:24.409Z,8.15
2023-08-14T12:36:22.179Z,7.88
2023-08-14T12:39:20.109Z,7.28
2023-08-14T12:42:18.524Z,7.97
2023-08-14T12:45:16.399Z,9.20
2023-08-14T12:48:14.992Z,7.35
2023-08-14T12:51:12.888Z,7.60
2023-08-14T12:54:12.915Z,7.93
2023-08-14T12:57:10.873Z,7.60
2023-08-14T13:00:10.424Z,9.15
2023-08-14T13:03:08.977Z,9.10
2023-08-14T13:06:08.897Z,6.95
2023-08-14T13:09:07.593Z,8.57
2023-08-14T13:12:05.841Z,7.30
2023-08-14T13:15:03.946Z,7.22
2023-08-14T13:18:01.700Z,7.30
2023-08-14T13:20:59.834Z,7.80
2023-08-14T13:23:57.803Z,7.32
2023-08-14T13:27:01.526Z,7.30
2023-08-14T13:29:59.938Z,6.78
2023-08-14T13:32:57.947Z,6.93
2023-08-14T13:35:55.765Z,7.10
2023-08-14T13:38:53.732Z,7.55
2023-08-14T13:41:51.487Z,8.23
2023-08-14T13:44:49.350Z,7.38
2023-08-14T13:47:54.866Z,6.75
2023-08-14T13:50:54.051Z,8.25
2023-08-14T13:53:51.951Z,9.18
2023-08-14T13:56:49.873Z,9.00
2023-08-14T13:59:47.678Z,8.80
2023-08-14T14:02:45.728Z,8.88
2023-08-14T14:05:43.630Z,8.70
2023-08-14T14:08:41.567Z,8.30
2023-08-14T14:11:39.389Z,8.10
2023-08-14T14:14:37.353Z,7.15
2023-08-14T14:17:35.160Z,7.10
2023-08-14T14:20:33.787Z,7.00
2023-08-14T14:23:31.688Z,7.50
2023-08-14T14:26:29.565Z,7.10
2023-08-14T14:29:27.658Z,8.00
2023-08-14T14:32:25.575Z,7.35
2023-08-14T14:35:23.488Z,7.78
2023-08-14T14:38:21.406Z,7.32
2023-08-14T14:41:19.317Z,6.97
2023-08-14T14:44:17.201Z,7.63
2023-08-14T14:47:15.059Z,9.40
2023-08-14T14:50:23.909Z,8.85
2023-08-14T14:53:27.133Z,9.18
2023-08-14T14:56:25.198Z,7.80
2023-08-14T14:59:23.019Z,8.70
2023-08-14T15:02:29.532Z,7.22
2023-08-14T15:05:29.299Z,7.82
2023-08-14T15:08:27.562Z,8.00
2023-08-14T15:11:25.428Z,8.63
2023-08-14T15:14:23.464Z,7.22
2023-08-14T15:17:23.241Z,7.72
2023-08-14T15:20:23.126Z,8.10
2023-08-14T15:23:20.955Z,6.75
2023-08-14T15:26:19.102Z,7.90
2023-08-14T15:29:16.963Z,7.85
2023-08-14T15:32:14.899Z,7.63
2023-08-14T15:35:13.988Z,7.53
2023-08-14T15:38:11.864Z,6.40
2023-08-14T15:41:11.474Z,8.82
2023-08-14T15:44:09.517Z,7.68
2023-08-14T15:47:07.407Z,7.53
2023-08-14T15:50:06.657Z,7.82
2023-08-14T15:53:04.906Z,8.38
2023-08-14T15:56:02.922Z,7.15
2023-08-14T15:59:00.705Z,8.57
2023-08-14T16:01:58.960Z,7.72
2023-08-14T16:04:56.742Z,8.05
2023-08-14T16:07:54.791Z,7.70
2023-08-14T16:10:52.702Z,8.27
2023-08-14T16:13:50.890Z,7.85
2023-08-14T16:16:48.754Z,8.50
2023-08-14T16:19:46.739Z,8.13
2023-08-14T16:22:44.658Z,8.38
2023-08-14T16:25:42.892Z,8.48
2023-08-14T16:28:40.818Z,8.10
2023-08-14T16:31:39.003Z,8.15
2023-08-14T16:34:37.027Z,9.15
2023-08-14T16:37:35.515Z,8.23
2023-08-14T16:40:34.083Z,7.43
2023-08-14T16:43:31.995Z,8.50
2023-08-14T16:46:29.937Z,7.90
2023-08-14T16:49:30.285Z,7.97
2023-08-14T16:52:28.377Z,8.38
2023-08-14T16:55:26.522Z,7.97
2023-08-14T16:58:24.618Z,9.05
2023-08-14T17:01:22.505Z,8.80
2023-08-14T17:04:20.770Z,9.38
2023-08-14T17:07:19.175Z,10.18
2023-08-14T17:10:17.653Z,10.18
2023-08-14T17:13:15.873Z,8.77
2023-08-14T17:16:14.498Z,9.45
2023-08-14T17:19:12.501Z,9.60
2023-08-14T17:22:11.212Z,8.35
2023-08-14T17:25:09.858Z,8.35
2023-08-14T17:28:07.805Z,9.07
2023-08-14T17:31:06.256Z,8.68
2023-08-14T17:34:07.136Z,8.60
2023-08-14T17:37:05.369Z,8.77
2023-08-14T17:40:03.278Z,8.13
2023-08-14T17:43:01.482Z,8.27
2023-08-14T17:46:02.568Z,8.52
2023-08-14T17:49:01.303Z,9.52
2023-08-14T17:51:59.085Z,8.43
2023-08-14T17:54:57.025Z,7.82
2023-08-14T17:57:54.952Z,8.48
2023-08-14T18:00:53.271Z,7.75
2023-08-14T18:03:51.205Z,7.63
2023-08-14T18:06:49.377Z,7.95
2023-08-14T18:09:47.165Z,7.20
2023-08-14T18:12:45.135Z,7.97
2023-08-14T18:15:43.079Z,8.32
2023-08-14T18:18:41.078Z,8.00
2023-08-14T18:21:38.856Z,7.43
2023-08-14T18:24:37.903Z,7.40
2023-08-14T18:27:35.703Z,7.57
2023-08-14T18:30:33.634Z,7.60
2023-08-14T18:33:31.506Z,7.82
2023-08-14T18:36:31.425Z,7.32
2023-08-14T18:39:29.405Z,8.52
2023-08-14T18:42:27.331Z,8.20
2023-08-14T18:45:26.435Z,6.75
2023-08-14T18:48:24.480Z,7.28
2023-08-14T18:51:22.338Z,8.20
2023-08-14T18:54:20.798Z,7.50
2023-08-14T18:57:18.787Z,7.63
2023-08-14T19:00:16.893Z,7.00
2023-08-14T19:03:14.730Z,7.10
2023-08-14T19:06:12.712Z,7.53
2023-08-14T19:09:10.599Z,7.13
2023-08-14T19:12:09.214Z,6.97
2023-08-14T19:15:08.392Z,7.25
2023-08-14T19:18:06.560Z,7.43
2023-08-14T19:21:04.792Z,8.32
2023-08-14T19:24:02.764Z,7.72
2023-08-14T19:27:00.654Z,7.40
2023-08-14T19:29:58.666Z,7.43
2023-08-14T19:32:57.118Z,7.70
2023-08-14T19:35:56.674Z,7.05
2023-08-14T19:38:55.359Z,7.65
2023-08-14T19:41:53.311Z,7.38
2023-08-14T19:44:51.182Z,7.00
2023-08-14T19:47:49.227Z,7.53
2023-08-14T19:50:47.969Z,7.68
2023-08-14T19:53:45.906Z,7.25
2023-08-14T19:56:43.909Z,6.93
2023-08-14T19:59:41.763Z,7.32
2023-08-14T20:02:39.590Z,7.85
2023-08-14T20:05:38.109Z,7.75
2023-08-14T20:08:35.888Z,8.23
2023-08-14T20:11:33.860Z,7.35
2023-08-14T20:14:31.688Z,6.57
2023-08-14T20:17:29.692Z,6.90
2023-08-14T20:20:27.556Z,7.03
2023-08-14T20:23:25.477Z,7.15
2023-08-14T20:26:24.726Z,7.57
2023-08-14T20:29:22.747Z,7.20
2023-08-14T20:32:20.831Z,6.80
2023-08-14T20:35:18.768Z,7.47
2023-08-14T20:38:17.585Z,7.03
2023-08-14T20:41:16.926Z,7.80
2023-08-14T20:44:14.693Z,6.80
2023-08-14T20:47:12.670Z,7.45
2023-08-14T20:50:10.877Z,6.97
2023-08-14T20:53:08.813Z,7.53
2023-08-14T20:56:06.659Z,7.05
2023-08-14T20:59:04.691Z,6.80
2023-08-14T21:02:02.555Z,7.13
2023-08-14T21:05:00.614Z,7.65
2023-08-14T21:07:58.550Z,6.85
2023-08-14T21:10:58.489Z,7.35
2023-08-14T21:13:57.030Z,7.68
2023-08-14T21:16:54.940Z,8.32
2023-08-14T21:19:52.743Z,7.82
2023-08-14T21:22:50.720Z,8.00
2023-08-14T21:25:48.547Z,7.50
2023-08-14T21:28:46.663Z,7.50
2023-08-14T21:31:44.432Z,7.13
2023-08-14T21:34:42.367Z,7.68
2023-08-14T21:37:40.762Z,8.05
2023-08-14T21:40:41.081Z,8.25
2023-08-14T21:43:40.023Z,8.20
2023-08-14T21:46:38.059Z,7.60
2023-08-14T21:49:36.396Z,7.80
2023-08-14T21:52:34.371Z,8.13
2023-08-14T21:55:32.837Z,8.23
2023-08-14T21:58:30.678Z,8.80
2023-08-14T22:01:28.614Z,9.68
2023-08-14T22:04:26.518Z,8.07
2023-08-14T22:07:24.349Z,7.60
2023-08-14T22:10:22.261Z,7.82
2023-08-14T22:13:20.038Z,7.15
2023-08-14T22:16:17.937Z,8.20
2023-08-14T22:19:15.963Z,8.25
2023-08-14T22:22:13.856Z,7.63
2023-08-14T22:25:14.752Z,7.82
2023-08-14T22:28:12.649Z,7.22
2023-08-14T22:31:15.268Z,7.97
2023-08-14T22:34:13.179Z,8.63
2023-08-14T22:37:11.379Z,8.35
2023-08-14T22:40:09.879Z,7.90
2023-08-14T22:43:07.640Z,8.25
2023-08-14T22:46:08.414Z,8.60
2023-08-14T22:49:06.209Z,8.40
2023-08-14T22:52:04.195Z,8.27
2023-08-14T22:55:01.955Z,8.50
2023-08-14T22:58:00.255Z,8.00
2023-08-14T23:00:58.034Z,8.85
2023-08-14T23:03:56.006Z,8.50
2023-08-14T23:06:54.316Z,9.07
2023-08-14T23:09:52.283Z,8.15
2023-08-14T23:12:50.096Z,8.15
2023-08-14T23:15:48.068Z,9.82
2023-08-14T23:18:45.935Z,8.98
2023-08-14T23:21:43.802Z,9.10
2023-08-14T23:24:41.968Z,8.68
2023-08-14T23:27:40.040Z,9.57
2023-08-14T23:30:39.062Z,8.05
2023-08-14T23:33:37.042Z,8.15
2023-08-14T23:36:34.832Z,7.75
2023-08-14T23:39:32.674Z,8.35
2023-08-14T23:42:30.338Z,8.48
2023-08-14T23:45:28.322Z,8.45
2023-08-14T23:48:25.992Z,8.55
2023-08-14T23:51:24.599Z,8.38
2023-08-14T23:54:22.555Z,8.20
2023-08-14T23:57:20.584Z,7.90
